Time;durP1;ratioP1;P1;durP2;ratioP2;P2;SDS_P1;SDS_P2;PMS_P1;PMS_P2;Temp;Humidity;BMP_temperature;BMP_pressure;BME280_temperature;BME280_humidity;BME280_pressure;Samples;Min_cycle;Max_cycle;Signal;HPM_P1;HPM_P2
2021/12/23 00:01:48;;;;;;;33.88;18.27;;;-3.10;99.90;;;;;;4999610;28;20026;-56
2021/12/23 00:04:14;;;;;;;35.28;18.13;;;-3.20;99.90;;;;;;4998011;28;20407;-57
2021/12/23 00:06:41;;;;;;;33.20;18.02;;;-3.20;99.90;;;;;;4999824;28;20022;-57
2021/12/23 00:09:07;;;;;;;33.72;18.92;;;-3.20;99.90;;;;;;4998625;28;20022;-57
2021/12/23 00:11:33;;;;;;;31.73;16.98;;;-3.20;99.90;;;;;;4999318;28;20516;-54
2021/12/23 00:14:02;;;;;;;32.90;17.25;;;-3.30;99.90;;;;;;4999333;28;20586;-57
2021/12/23 00:16:50;;;;;;;38.88;18.25;;;-3.30;99.90;;;;;;4996802;28;20019;-56
2021/12/23 00:19:34;;;;;;;37.60;17.50;;;-3.30;99.90;;;;;;4996306;28;20021;-57
2021/12/23 00:24:44;;;;;;;36.90;18.60;;;-3.30;99.90;;;;;;4999886;28;20048;-57
2021/12/23 00:27:10;;;;;;;33.85;18.40;;;-3.30;99.90;;;;;;5004649;28;20293;-56
2021/12/23 00:29:36;;;;;;;33.72;18.55;;;-3.30;99.90;;;;;;5002896;28;20455;-57
2021/12/23 00:32:05;;;;;;;35.35;17.42;;;-3.30;99.90;;;;;;5002831;28;20292;-54
2021/12/23 00:34:31;;;;;;;35.33;18.50;;;-3.30;99.90;;;;;;5004366;28;20034;-55
2021/12/23 00:36:59;;;;;;;41.17;19.63;;;-3.30;99.90;;;;;;5002685;28;20029;-54
2021/12/23 00:39:26;;;;;;;37.63;19.23;;;-3.30;99.90;;;;;;5002876;28;20057;-57
2021/12/23 00:41:52;;;;;;;43.75;18.85;;;-3.30;99.90;;;;;;5002196;28;20452;-55
2021/12/23 00:44:18;;;;;;;33.67;18.20;;;-3.30;99.90;;;;;;5004708;28;20034;-56
2021/12/23 00:46:44;;;;;;;33.83;17.58;;;-3.30;99.90;;;;;;5004498;28;20048;-55
2021/12/23 00:49:10;;;;;;;33.88;17.50;;;-3.30;99.90;;;;;;5000965;28;20034;-52
2021/12/23 00:51:36;;;;;;;34.53;18.05;;;-3.30;99.90;;;;;;5002587;28;20029;-57
2021/12/23 00:54:05;;;;;;;32.45;17.73;;;-3.30;99.90;;;;;;5000466;28;20030;-54
2021/12/23 00:56:35;;;;;;;38.40;18.95;;;-3.30;99.90;;;;;;5002835;28;20038;-56
2021/12/23 00:59:03;;;;;;;34.67;18.33;;;-3.30;99.90;;;;;;5002035;28;20081;-55
2021/12/23 01:01:28;;;;;;;35.70;17.60;;;-3.30;99.90;;;;;;5002152;28;20041;-54
2021/12/23 01:03:54;;;;;;;37.85;18.58;;;-3.30;99.90;;;;;;5001070;28;20483;-56
2021/12/23 01:06:20;;;;;;;35.97;19.02;;;-3.30;99.90;;;;;;5002583;28;20037;-56
2021/12/23 01:08:46;;;;;;;38.20;18.17;;;-3.30;99.90;;;;;;5000896;28;20042;-55
2021/12/23 01:11:11;;;;;;;34.85;17.90;;;-3.30;99.90;;;;;;5001961;28;20018;-56
2021/12/23 01:13:38;;;;;;;33.50;18.13;;;-3.20;99.90;;;;;;5003039;28;20405;-57
2021/12/23 01:16:14;;;;;;;37.47;17.92;;;-3.30;99.90;;;;;;5001556;28;20065;-57
2021/12/23 01:18:43;;;;;;;39.10;18.27;;;-3.30;99.90;;;;;;5001891;28;20084;-57
2021/12/23 01:21:18;;;;;;;31.23;17.98;;;-3.20;99.90;;;;;;5001503;28;20104;-55
2021/12/23 01:23:52;;;;;;;31.15;18.15;;;-3.20;99.90;;;;;;5001262;28;20265;-57
2021/12/23 01:26:20;;;;;;;32.47;17.80;;;-3.20;99.90;;;;;;5000849;28;20084;-55
2021/12/23 01:28:48;;;;;;;31.83;17.65;;;-3.20;99.90;;;;;;5001525;28;20014;-54
2021/12/23 01:31:14;;;;;;;36.20;17.48;;;-3.20;99.90;;;;;;4998669;28;20457;-55
2021/12/23 01:33:40;;;;;;;36.70;16.60;;;-3.20;99.90;;;;;;5001532;28;20021;-54
2021/12/23 01:36:06;;;;;;;32.08;17.73;;;-3.30;99.90;;;;;;4999310;28;20100;-54
2021/12/23 01:38:31;;;;;;;38.20;18.33;;;-3.30;99.90;;;;;;5000678;28;20121;-56
2021/12/23 01:40:57;;;;;;;31.10;17.63;;;-3.20;99.90;;;;;;5000836;28;20467;-56
2021/12/23 01:43:23;;;;;;;34.97;17.98;;;-3.30;99.90;;;;;;5001119;28;20092;-57
2021/12/23 01:45:49;;;;;;;34.53;15.75;;;-3.20;99.90;;;;;;5001322;28;20022;-55
2021/12/23 01:48:17;;;;;;;30.55;15.48;;;-3.20;99.90;;;;;;5003809;28;20397;-53
2021/12/23 01:50:42;;;;;;;31.58;16.75;;;-3.20;99.90;;;;;;5001887;28;20034;-57
2021/12/23 01:53:08;;;;;;;38.33;17.33;;;-3.20;99.90;;;;;;5004793;28;20501;-56
2021/12/23 01:55:35;;;;;;;28.52;15.98;;;-3.20;99.90;;;;;;5001848;28;20105;-56
2021/12/23 01:58:02;;;;;;;29.55;16.42;;;-3.20;99.90;;;;;;5001129;28;20033;-57
2021/12/23 02:00:33;;;;;;;33.60;17.23;;;-3.20;99.90;;;;;;5001142;28;20041;-57
2021/12/23 02:02:59;;;;;;;26.13;15.75;;;-3.20;99.90;;;;;;5000838;28;20376;-56
2021/12/23 02:05:24;;;;;;;33.70;17.75;;;-3.20;99.90;;;;;;5001148;28;20026;-57
2021/12/23 02:07:50;;;;;;;29.38;15.50;;;-3.20;99.90;;;;;;5000698;28;20369;-56
2021/12/23 02:10:16;;;;;;;30.45;16.20;;;-3.20;99.90;;;;;;5001065;28;20026;-56
2021/12/23 02:12:45;;;;;;;33.15;16.38;;;-3.20;99.90;;;;;;5000494;28;20172;-57
2021/12/23 02:15:12;;;;;;;29.15;15.73;;;-3.10;99.90;;;;;;5000886;28;20081;-58
2021/12/23 02:17:38;;;;;;;32.85;16.85;;;-3.10;99.90;;;;;;5000806;28;20041;-57
2021/12/23 02:20:09;;;;;;;31.65;15.13;;;-3.10;99.90;;;;;;5000667;28;20026;-58
2021/12/23 02:22:34;;;;;;;33.22;15.20;;;-3.10;99.90;;;;;;5001606;28;20412;-58
2021/12/23 02:25:00;;;;;;;27.33;15.77;;;-3.10;99.90;;;;;;4998941;28;20022;-57
2021/12/23 02:27:25;;;;;;;32.10;17.00;;;-3.10;99.90;;;;;;5000284;28;20034;-58
2021/12/23 02:29:51;;;;;;;26.15;15.50;;;-3.10;99.90;;;;;;5000505;28;20092;-57
2021/12/23 02:32:17;;;;;;;28.73;16.13;;;-3.10;99.90;;;;;;4999858;28;20026;-57
2021/12/23 02:34:42;;;;;;;31.50;16.00;;;-3.10;99.90;;;;;;5000813;28;20121;-56
2021/12/23 02:37:08;;;;;;;30.55;15.35;;;-3.10;99.90;;;;;;4998764;28;20076;-56
2021/12/23 02:39:34;;;;;;;34.25;16.42;;;-3.10;99.90;;;;;;5000132;28;20033;-57
2021/12/23 02:41:59;;;;;;;24.13;14.55;;;-3.10;99.90;;;;;;5000335;28;20033;-57
2021/12/23 02:44:25;;;;;;;25.42;14.70;;;-3.00;99.90;;;;;;5000504;28;20045;-56
2021/12/23 02:46:50;;;;;;;29.25;15.48;;;-3.00;99.90;;;;;;5000406;28;20265;-55
2021/12/23 02:49:17;;;;;;;29.13;16.42;;;-3.00;99.90;;;;;;4998945;28;20581;-55
2021/12/23 02:51:43;;;;;;;29.33;14.95;;;-3.00;99.90;;;;;;4999809;28;20042;-55
2021/12/23 02:54:09;;;;;;;33.47;16.13;;;-3.00;99.90;;;;;;5000440;28;20088;-55
2021/12/23 02:56:34;;;;;;;29.98;15.32;;;-3.00;99.90;;;;;;5000815;28;20076;-56
2021/12/23 02:59:00;;;;;;;25.52;14.23;;;-3.00;99.90;;;;;;4999687;28;20356;-57
2021/12/23 03:01:26;;;;;;;30.08;14.93;;;-3.00;99.90;;;;;;5001206;28;20026;-57
2021/12/23 03:03:52;;;;;;;31.20;16.50;;;-3.00;99.90;;;;;;5016400;22;20046;-49
2021/12/23 03:06:19;;;;;;;27.58;15.18;;;-3.00;99.90;;;;;;5038519;28;20068;-50
2021/12/23 03:08:49;;;;;;;25.20;14.48;;;-2.90;99.90;;;;;;5038508;28;20033;-48
2021/12/23 03:11:17;;;;;;;29.42;14.95;;;-3.00;99.90;;;;;;5040549;28;20025;-52
2021/12/23 03:13:43;;;;;;;27.33;14.43;;;-3.00;99.90;;;;;;5039698;28;20112;-51
2021/12/23 03:16:10;;;;;;;29.13;15.60;;;-3.00;99.90;;;;;;5057711;28;20125;-50
2021/12/23 03:18:36;;;;;;;25.80;15.60;;;-3.00;99.90;;;;;;5054503;28;20025;-50
2021/12/23 03:21:03;;;;;;;27.45;16.02;;;-3.00;99.90;;;;;;5058020;28;20029;-51
2021/12/23 03:23:29;;;;;;;23.50;14.07;;;-2.90;99.90;;;;;;5057228;28;20057;-49
2021/12/23 03:25:55;;;;;;;25.85;14.13;;;-2.90;99.90;;;;;;5056691;28;20448;-53
2021/12/23 03:28:21;;;;;;;27.33;14.48;;;-2.90;99.90;;;;;;5058317;28;20074;-50
2021/12/23 03:30:47;;;;;;;26.92;15.45;;;-3.00;99.90;;;;;;5057843;28;20029;-49
2021/12/23 03:33:14;;;;;;;25.77;15.00;;;-2.90;99.90;;;;;;5057764;28;20047;-51
2021/12/23 03:35:40;;;;;;;28.08;15.80;;;-2.90;99.90;;;;;;5058414;28;20060;-52
2021/12/23 03:38:06;;;;;;;23.33;15.07;;;-2.90;99.90;;;;;;5057750;28;20055;-50
2021/12/23 03:40:32;;;;;;;24.67;14.73;;;-2.90;99.90;;;;;;5057966;28;20032;-50
2021/12/23 03:42:58;;;;;;;28.15;15.32;;;-2.90;99.90;;;;;;5057500;28;20048;-49
2021/12/23 03:45:24;;;;;;;26.88;15.45;;;-2.90;99.90;;;;;;5057904;28;20471;-53
2021/12/23 03:47:50;;;;;;;25.40;14.82;;;-2.90;99.90;;;;;;5058152;28;20494;-48
2021/12/23 03:50:19;;;;;;;26.17;14.57;;;-2.90;99.90;;;;;;5058210;28;20020;-53
2021/12/23 03:52:44;;;;;;;28.58;15.07;;;-2.90;99.90;;;;;;5057295;28;20025;-52
2021/12/23 03:55:12;;;;;;;27.15;15.10;;;-2.90;99.90;;;;;;5058338;28;20025;-49
2021/12/23 03:57:38;;;;;;;28.92;15.15;;;-2.90;99.90;;;;;;5056501;28;20475;-50
2021/12/23 04:00:06;;;;;;;25.63;14.23;;;-2.90;99.90;;;;;;5059602;28;20032;-49
2021/12/23 04:02:32;;;;;;;23.42;13.27;;;-2.90;99.90;;;;;;5061218;28;20199;-51
2021/12/23 04:04:57;;;;;;;29.65;15.50;;;-2.90;99.90;;;;;;5060289;28;20103;-49
2021/12/23 04:07:23;;;;;;;28.35;14.98;;;-2.90;99.90;;;;;;5061194;28;20503;-50
2021/12/23 04:09:49;;;;;;;30.02;15.98;;;-2.80;99.90;;;;;;5061637;28;20126;-48
2021/12/23 04:12:14;;;;;;;26.23;14.55;;;-2.90;99.90;;;;;;5061029;28;20425;-50
2021/12/23 04:14:40;;;;;;;28.90;15.45;;;-2.90;99.90;;;;;;5060414;28;20032;-51
2021/12/23 04:17:05;;;;;;;26.75;15.15;;;-2.80;99.90;;;;;;5060944;28;20078;-49
2021/12/23 04:19:32;;;;;;;24.60;15.07;;;-2.80;99.90;;;;;;5059370;28;20033;-47
2021/12/23 04:21:58;;;;;;;28.27;16.23;;;-2.80;99.90;;;;;;5061339;28;20016;-51
2021/12/23 04:24:24;;;;;;;25.70;14.55;;;-2.80;99.90;;;;;;5061391;28;20046;-49
2021/12/23 04:26:51;;;;;;;23.90;14.32;;;-2.80;99.90;;;;;;5061633;28;20050;-54
2021/12/23 04:29:17;;;;;;;26.20;14.25;;;-2.80;99.90;;;;;;5060675;28;20490;-49
2021/12/23 04:31:43;;;;;;;27.20;14.32;;;-2.80;99.90;;;;;;5060524;28;20039;-48
2021/12/23 04:34:08;;;;;;;28.13;14.75;;;-2.80;99.90;;;;;;5060442;28;20471;-53
2021/12/23 04:36:34;;;;;;;28.23;15.63;;;-2.80;99.90;;;;;;5059192;28;20020;-48
2021/12/23 04:39:00;;;;;;;25.73;15.00;;;-2.80;99.90;;;;;;5061601;28;20108;-50
2021/12/23 04:41:26;;;;;;;25.23;14.90;;;-2.80;99.90;;;;;;5061310;28;20271;-49
2021/12/23 04:43:52;;;;;;;29.30;14.90;;;-2.80;99.90;;;;;;5060973;28;20021;-49
2021/12/23 04:46:17;;;;;;;25.45;14.80;;;-2.80;99.90;;;;;;5061208;28;20552;-50
2021/12/23 04:48:45;;;;;;;27.20;14.15;;;-2.80;99.90;;;;;;5059157;28;20452;-51
2021/12/23 04:51:12;;;;;;;22.92;13.57;;;-2.80;99.90;;;;;;5060637;28;20039;-51
2021/12/23 04:53:38;;;;;;;25.45;14.43;;;-2.80;99.90;;;;;;5061497;28;20032;-53
2021/12/23 04:56:04;;;;;;;22.35;14.15;;;-2.80;99.90;;;;;;5060370;28;20559;-52
2021/12/23 04:58:29;;;;;;;28.65;15.63;;;-2.70;99.90;;;;;;5059449;28;20057;-53
2021/12/23 05:00:55;;;;;;;26.38;13.70;;;-2.70;99.90;;;;;;5060881;28;20036;-51
2021/12/23 05:03:22;;;;;;;27.73;14.80;;;-2.70;99.90;;;;;;5060826;28;20113;-51
2021/12/23 05:05:48;;;;;;;22.83;14.60;;;-2.80;99.90;;;;;;5060847;28;20246;-49
2021/12/23 05:08:15;;;;;;;27.27;15.10;;;-2.80;99.90;;;;;;5060294;28;20108;-49
2021/12/23 05:10:42;;;;;;;25.52;14.48;;;-2.80;99.90;;;;;;5060211;28;20107;-53
2021/12/23 05:13:08;;;;;;;23.25;14.35;;;-2.80;99.90;;;;;;5059690;28;20082;-50
2021/12/23 05:15:34;;;;;;;25.38;14.93;;;-2.80;99.90;;;;;;5059580;28;20024;-51
2021/12/23 05:17:59;;;;;;;29.52;15.68;;;-2.80;99.90;;;;;;5060180;28;20388;-49
2021/12/23 05:20:26;;;;;;;29.95;15.95;;;-2.70;99.90;;;;;;5060757;28;20090;-50
2021/12/23 05:22:51;;;;;;;25.75;14.25;;;-2.70;99.90;;;;;;5059780;28;20094;-49
2021/12/23 05:25:17;;;;;;;29.55;15.15;;;-2.70;99.90;;;;;;5058549;28;20472;-49
2021/12/23 05:27:44;;;;;;;25.48;14.68;;;-2.70;99.90;;;;;;5059002;28;20502;-48
2021/12/23 05:30:12;;;;;;;27.60;15.32;;;-2.70;99.90;;;;;;5060076;28;20120;-49
2021/12/23 05:32:38;;;;;;;31.48;16.58;;;-2.70;99.90;;;;;;5059500;28;20106;-48
2021/12/23 05:35:05;;;;;;;32.55;16.02;;;-2.70;99.90;;;;;;5059455;28;20075;-52
2021/12/23 05:37:31;;;;;;;26.38;15.15;;;-2.70;99.90;;;;;;5058916;28;20656;-50
2021/12/23 05:39:57;;;;;;;29.30;15.05;;;-2.70;99.90;;;;;;5060452;28;20021;-52
2021/12/23 05:42:22;;;;;;;27.33;14.60;;;-2.70;99.90;;;;;;5059539;28;20083;-52
2021/12/23 05:44:48;;;;;;;27.00;15.52;;;-2.70;99.90;;;;;;5060261;28;20519;-53
2021/12/23 05:47:13;;;;;;;24.73;15.52;;;-2.70;99.90;;;;;;5058159;28;20017;-51
2021/12/23 05:49:39;;;;;;;28.50;14.50;;;-2.70;99.90;;;;;;5057917;28;20027;-51
2021/12/23 05:52:05;;;;;;;25.92;14.38;;;-2.70;99.90;;;;;;5059165;28;20078;-49
2021/12/23 05:54:30;;;;;;;24.10;14.18;;;-2.70;99.90;;;;;;5058069;28;20418;-49
2021/12/23 05:57:02;;;;;;;27.65;15.82;;;-2.70;99.90;;;;;;5059420;28;20020;-51
2021/12/23 05:59:29;;;;;;;25.48;14.63;;;-2.60;99.90;;;;;;5058622;28;20241;-50
2021/12/23 06:01:55;;;;;;;21.73;13.68;;;-2.60;99.90;;;;;;5059545;28;20424;-50
2021/12/23 06:04:21;;;;;;;28.30;15.57;;;-2.60;99.90;;;;;;5058440;28;20115;-49
2021/12/23 06:06:46;;;;;;;26.95;14.88;;;-2.70;99.90;;;;;;5059420;28;20020;-50
2021/12/23 06:09:12;;;;;;;24.88;15.07;;;-2.60;99.90;;;;;;5059658;28;20021;-49
2021/12/23 06:11:38;;;;;;;25.27;12.93;;;-2.60;99.90;;;;;;5059915;28;20021;-51
2021/12/23 06:14:03;;;;;;;27.05;14.43;;;-2.60;99.90;;;;;;5058029;28;20035;-51
2021/12/23 06:16:29;;;;;;;24.67;14.57;;;-2.60;99.90;;;;;;5059634;28;20029;-48
2021/12/23 06:18:54;;;;;;;26.13;14.93;;;-2.60;99.90;;;;;;5059138;28;20375;-51
2021/12/23 06:21:22;;;;;;;22.95;13.15;;;-2.60;99.90;;;;;;5058322;28;20035;-51
2021/12/23 06:23:47;;;;;;;24.08;13.98;;;-2.60;99.90;;;;;;5058786;28;20074;-49
2021/12/23 06:26:13;;;;;;;25.88;16.05;;;-2.60;99.90;;;;;;5058685;28;20021;-52
2021/12/23 06:28:39;;;;;;;24.15;14.48;;;-2.60;99.90;;;;;;5059347;28;20079;-50
2021/12/23 06:31:04;;;;;;;30.50;15.52;;;-2.60;99.90;;;;;;5059132;28;20093;-51
2021/12/23 06:33:30;;;;;;;26.17;14.93;;;-2.50;99.90;;;;;;5059178;28;20021;-50
2021/12/23 06:35:55;;;;;;;24.88;14.18;;;-2.50;99.90;;;;;;5058885;28;20032;-51
2021/12/23 06:38:21;;;;;;;29.67;15.98;;;-2.50;99.90;;;;;;5058492;28;20040;-48
2021/12/23 06:40:47;;;;;;;23.38;14.70;;;-2.50;99.90;;;;;;5056028;28;20439;-50
2021/12/23 06:43:12;;;;;;;29.25;14.85;;;-2.50;99.90;;;;;;5057687;28;20048;-48
2021/12/23 06:45:38;;;;;;;23.00;14.25;;;-2.50;99.90;;;;;;5059178;28;20051;-49
2021/12/23 06:48:04;;;;;;;22.52;14.57;;;-2.50;99.90;;;;;;5057353;28;20021;-51
2021/12/23 06:50:30;;;;;;;31.88;16.98;;;-2.50;99.90;;;;;;5059163;28;20021;-51
2021/12/23 06:52:55;;;;;;;28.45;16.10;;;-2.50;99.90;;;;;;5056887;28;20111;-52
2021/12/23 06:55:21;;;;;;;24.63;14.73;;;-2.50;99.90;;;;;;5056264;28;20118;-49
2021/12/23 06:57:53;;;;;;;25.88;14.43;;;-2.50;99.90;;;;;;5056960;28;20502;-49
2021/12/23 07:00:18;;;;;;;22.75;15.15;;;-2.50;99.90;;;;;;5057111;28;20048;-52
2021/12/23 07:02:46;;;;;;;22.67;13.98;;;-2.40;99.90;;;;;;5058028;28;20109;-50
2021/12/23 07:05:12;;;;;;;24.15;14.60;;;-2.50;99.90;;;;;;5057896;28;20519;-52
2021/12/23 07:07:51;;;;;;;24.23;14.82;;;-2.50;99.90;;;;;;5058415;28;20524;-50
2021/12/23 07:10:16;;;;;;;28.65;15.95;;;-2.40;99.90;;;;;;5059210;28;20021;-48
2021/12/23 07:12:42;;;;;;;25.75;14.65;;;-2.40;99.90;;;;;;5057555;28;20510;-51
2021/12/23 07:15:08;;;;;;;27.20;14.77;;;-2.40;99.90;;;;;;5057819;28;20043;-51
2021/12/23 07:17:35;;;;;;;24.27;13.95;;;-2.40;99.90;;;;;;5058110;28;20029;-50
2021/12/23 07:20:01;;;;;;;27.80;15.15;;;-2.40;99.90;;;;;;5057751;28;20027;-49
2021/12/23 07:22:27;;;;;;;22.30;14.23;;;-2.40;99.90;;;;;;5058808;28;20024;-48
2021/12/23 07:24:52;;;;;;;28.52;14.93;;;-2.40;99.90;;;;;;5057114;28;20079;-51
2021/12/23 07:27:18;;;;;;;23.85;16.05;;;-2.40;99.90;;;;;;5057706;28;20036;-53
2021/12/23 07:29:44;;;;;;;27.00;15.50;;;-2.40;99.90;;;;;;5056025;28;20044;-53
2021/12/23 07:32:10;;;;;;;25.67;14.95;;;-2.40;99.90;;;;;;5056787;28;20025;-52
2021/12/23 07:34:39;;;;;;;26.35;14.75;;;-2.40;99.90;;;;;;5059254;28;20095;-52
2021/12/23 07:37:05;;;;;;;23.50;15.25;;;-2.40;99.90;;;;;;5061016;28;20021;-53
2021/12/23 07:39:30;;;;;;;23.27;15.07;;;-2.40;99.90;;;;;;5061513;28;20053;-49
2021/12/23 07:41:57;;;;;;;24.58;14.05;;;-2.30;99.90;;;;;;5062285;28;20075;-50
2021/12/23 07:44:22;;;;;;;24.40;14.95;;;-2.40;99.90;;;;;;5062329;28;20025;-52
2021/12/23 07:46:50;;;;;;;26.10;15.73;;;-2.40;99.90;;;;;;5062550;28;20013;-51
2021/12/23 07:49:17;;;;;;;21.60;13.88;;;-2.40;99.90;;;;;;5060768;28;20119;-51
2021/12/23 07:51:43;;;;;;;25.52;14.25;;;-2.40;99.90;;;;;;5061842;28;20021;-53
2021/12/23 07:54:09;;;;;;;24.20;14.80;;;-2.40;99.90;;;;;;5062225;28;20031;-50
2021/12/23 07:56:35;;;;;;;25.58;14.35;;;-2.40;99.90;;;;;;5061030;28;20028;-52
2021/12/23 07:59:00;;;;;;;23.80;15.20;;;-2.40;99.90;;;;;;5060164;28;20025;-50
2021/12/23 08:01:26;;;;;;;23.25;15.10;;;-2.40;99.90;;;;;;5061366;28;20100;-48
2021/12/23 08:03:52;;;;;;;24.15;16.20;;;-2.30;99.90;;;;;;5060832;28;20021;-50
2021/12/23 08:06:18;;;;;;;25.83;14.82;;;-2.30;99.90;;;;;;5062156;28;20029;-50
2021/12/23 08:08:43;;;;;;;23.58;14.63;;;-2.30;99.90;;;;;;5061279;28;20150;-50
2021/12/23 08:11:09;;;;;;;27.33;15.15;;;-2.30;99.90;;;;;;5058837;28;20071;-51
2021/12/23 08:13:36;;;;;;;24.00;15.02;;;-2.30;99.90;;;;;;5060504;28;20037;-51
2021/12/23 08:16:02;;;;;;;28.60;16.55;;;-2.20;99.90;;;;;;5061755;28;20497;-51
2021/12/23 08:18:29;;;;;;;27.30;15.63;;;-2.30;99.90;;;;;;5061161;28;20032;-52
2021/12/23 08:20:55;;;;;;;25.17;15.88;;;-2.30;99.90;;;;;;5061201;28;20402;-50
2021/12/23 08:23:20;;;;;;;22.70;13.50;;;-2.30;99.90;;;;;;5061529;28;20033;-53
2021/12/23 08:25:46;;;;;;;25.52;15.68;;;-2.30;99.90;;;;;;5059733;28;20044;-50
2021/12/23 08:28:12;;;;;;;24.10;14.23;;;-2.20;99.90;;;;;;5060040;28;20100;-51
2021/12/23 08:30:39;;;;;;;26.70;16.58;;;-2.30;99.90;;;;;;5061917;28;20016;-50
2021/12/23 08:33:06;;;;;;;26.23;15.80;;;-2.20;99.90;;;;;;5060443;28;20552;-50
2021/12/23 08:35:33;;;;;;;25.88;15.35;;;-2.20;99.90;;;;;;5059539;28;20123;-50
2021/12/23 08:37:59;;;;;;;25.90;15.05;;;-2.20;99.90;;;;;;5059717;28;20458;-49
2021/12/23 08:40:27;;;;;;;28.02;15.68;;;-2.10;99.90;;;;;;5060433;28;20060;-49
2021/12/23 08:42:54;;;;;;;23.08;15.02;;;-2.10;99.90;;;;;;5060562;28;20025;-51
2021/12/23 08:45:20;;;;;;;25.92;15.63;;;-2.10;99.90;;;;;;5060867;28;20063;-53
2021/12/23 08:47:46;;;;;;;23.75;15.45;;;-2.10;99.90;;;;;;5061235;28;20067;-54
2021/12/23 08:50:14;;;;;;;27.13;16.55;;;-2.10;99.90;;;;;;5060929;28;20095;-51
2021/12/23 08:52:40;;;;;;;25.63;14.63;;;-2.00;99.90;;;;;;5060740;28;20455;-50
2021/12/23 08:55:09;;;;;;;26.73;16.30;;;-2.00;99.90;;;;;;5061193;28;20023;-49
2021/12/23 08:57:35;;;;;;;26.02;14.82;;;-2.00;99.90;;;;;;5060230;28;20028;-51
2021/12/23 09:00:01;;;;;;;25.88;16.83;;;-1.90;99.90;;;;;;5061187;28;20029;-48
2021/12/23 09:02:26;;;;;;;27.73;16.13;;;-1.90;99.90;;;;;;5061624;28;20043;-49
2021/12/23 09:04:52;;;;;;;28.02;16.73;;;-1.90;99.90;;;;;;5071432;22;20037;-56
2021/12/23 09:07:18;;;;;;;25.98;15.43;;;-1.80;99.90;;;;;;5039897;28;20052;-51
2021/12/23 09:09:50;;;;;;;29.15;17.10;;;-1.80;99.90;;;;;;5037621;28;20574;-56
2021/12/23 09:12:16;;;;;;;29.92;17.27;;;-1.80;99.90;;;;;;5038749;28;20020;-53
2021/12/23 09:14:42;;;;;;;26.85;16.77;;;-1.80;99.90;;;;;;5039569;28;20024;-50
2021/12/23 09:17:07;;;;;;;31.08;17.55;;;-1.80;99.90;;;;;;5039844;28;20288;-55
2021/12/23 09:19:33;;;;;;;26.58;15.00;;;-1.70;99.90;;;;;;5037886;28;20033;-56
2021/12/23 09:21:58;;;;;;;30.08;17.08;;;-1.70;99.90;;;;;;5039327;28;20068;-52
2021/12/23 09:24:26;;;;;;;25.10;16.13;;;-1.70;99.90;;;;;;5038226;28;20029;-53
2021/12/23 09:27:14;;;;;;;27.60;16.27;;;-1.70;99.90;;;;;;5038707;28;20154;-52
2021/12/23 09:34:56;;;;;;;28.98;16.17;;;-1.60;99.90;;;;;;5039694;28;20032;-54
2021/12/23 09:37:24;;;;;;;25.13;16.63;;;-1.60;99.90;;;;;;5038253;28;20029;-51
2021/12/23 09:39:55;;;;;;;27.08;16.88;;;-1.50;99.90;;;;;;5037918;28;20092;-52
2021/12/23 09:42:33;;;;;;;28.02;16.23;;;-1.50;99.90;;;;;;5039203;28;20029;-54
2021/12/23 09:45:05;;;;;;;22.73;15.10;;;-1.50;99.90;;;;;;5038565;28;20017;-53
2021/12/23 09:47:34;;;;;;;27.20;16.95;;;-1.50;99.90;;;;;;5038191;28;20029;-55
2021/12/23 09:50:03;;;;;;;26.95;16.15;;;-1.50;99.90;;;;;;5038083;28;20332;-53
2021/12/23 09:52:33;;;;;;;27.23;15.88;;;-1.50;99.90;;;;;;5035836;28;20733;-49
2021/12/23 09:55:02;;;;;;;27.15;16.65;;;-1.50;99.90;;;;;;5037067;28;20025;-50
2021/12/23 09:57:29;;;;;;;27.77;17.08;;;-1.40;99.90;;;;;;5038003;28;20087;-54
2021/12/23 09:59:55;;;;;;;26.35;15.98;;;-1.40;99.90;;;;;;5038174;28;20024;-53
2021/12/23 10:02:21;;;;;;;29.95;17.08;;;-1.40;99.90;;;;;;5038791;28;20041;-53
2021/12/23 10:04:46;;;;;;;28.45;17.10;;;-1.40;99.90;;;;;;5038488;28;20495;-51
2021/12/23 10:07:12;;;;;;;25.73;16.02;;;-1.30;99.90;;;;;;5038531;28;20027;-52
2021/12/23 10:09:46;;;;;;;27.65;16.35;;;-1.30;99.90;;;;;;5037836;28;20395;-53
2021/12/23 10:31:29;;;;;;;23.65;15.05;;;-1.10;99.90;;;;;;5038726;28;20049;-55
2021/12/23 10:39:34;;;;;;;22.17;14.35;;;-1.10;99.90;;;;;;5038353;28;20041;-53
2021/12/23 10:42:14;;;;;;;24.70;15.93;;;-1.10;99.90;;;;;;5038626;28;20032;-51
2021/12/23 10:44:54;;;;;;;27.48;16.55;;;-1.00;99.90;;;;;;5038484;28;20021;-52
2021/12/23 10:47:31;;;;;;;25.58;16.13;;;-1.00;99.90;;;;;;5038400;28;20079;-53
2021/12/23 10:50:29;;;;;;;23.73;15.15;;;-1.00;99.90;;;;;;5037993;28;20138;-49
2021/12/23 10:53:08;;;;;;;27.77;15.82;;;-1.00;99.90;;;;;;5038380;28;20380;-56
2021/12/23 10:58:19;;;;;;;27.35;16.30;;;-1.00;99.90;;;;;;5037272;28;20032;-50
2021/12/23 11:00:53;;;;;;;23.77;14.73;;;-1.00;99.90;;;;;;5036188;28;20033;-51
2021/12/23 11:03:26;;;;;;;25.52;16.30;;;-1.00;99.90;;;;;;5036276;28;20028;-51
2021/12/23 11:06:08;;;;;;;24.33;16.30;;;-0.90;99.90;;;;;;5036286;28;20483;-54
2021/12/23 11:08:55;;;;;;;25.95;14.90;;;-0.90;99.90;;;;;;5035171;28;20508;-50
2021/12/23 11:41:51;;;;;;;24.73;15.55;;;-0.70;99.90;;;;;;5038005;28;20091;-49
2021/12/23 11:44:17;;;;;;;23.27;15.43;;;-0.70;99.90;;;;;;5036824;28;20053;-51
2021/12/23 11:46:48;;;;;;;22.08;15.20;;;-0.70;99.90;;;;;;5036165;28;20057;-51
2021/12/23 11:49:16;;;;;;;24.38;16.25;;;-0.70;99.90;;;;;;5035622;28;20392;-53
2021/12/23 11:51:51;;;;;;;22.48;15.95;;;-0.60;99.90;;;;;;5036269;28;20045;-53
2021/12/23 11:54:30;;;;;;;22.52;15.82;;;-0.60;99.90;;;;;;5036522;28;20032;-52
2021/12/23 11:57:23;;;;;;;26.63;15.82;;;-0.60;99.90;;;;;;5036788;28;20033;-53
2021/12/23 12:00:08;;;;;;;23.30;14.13;;;-0.60;99.90;;;;;;5029033;28;20513;-52
2021/12/23 12:02:34;;;;;;;21.83;15.35;;;-0.60;99.90;;;;;;5034691;28;20044;-51
2021/12/23 12:05:04;;;;;;;24.98;15.02;;;-0.60;99.90;;;;;;5034949;28;20034;-53
2021/12/23 12:07:30;;;;;;;22.23;15.27;;;-0.60;99.90;;;;;;5036068;28;20025;-53
2021/12/23 12:10:08;;;;;;;24.02;15.20;;;-0.60;99.90;;;;;;5035715;28;20037;-51
2021/12/23 12:12:35;;;;;;;25.67;15.98;;;-0.60;99.90;;;;;;5035456;28;20048;-56
2021/12/23 12:15:03;;;;;;;22.60;15.80;;;-0.50;99.90;;;;;;5036745;28;20032;-52
2021/12/23 12:17:32;;;;;;;24.50;15.15;;;-0.50;99.90;;;;;;5037753;28;20039;-58
2021/12/23 12:20:15;;;;;;;23.50;15.27;;;-0.50;99.90;;;;;;5037477;28;20024;-50
2021/12/23 12:22:49;;;;;;;26.75;16.40;;;-0.50;99.90;;;;;;5041415;28;20060;-51
2021/12/23 12:25:26;;;;;;;22.73;15.10;;;-0.50;99.90;;;;;;5038629;28;20476;-54
2021/12/23 12:27:55;;;;;;;26.52;16.33;;;-0.50;99.90;;;;;;5039558;28;20029;-53
2021/12/23 12:30:35;;;;;;;22.60;14.60;;;-0.40;99.90;;;;;;5039010;28;20045;-53
2021/12/23 12:33:08;;;;;;;20.83;14.40;;;-0.40;99.90;;;;;;5039587;28;20067;-52
2021/12/23 12:35:34;;;;;;;24.55;16.88;;;-0.40;99.90;;;;;;5037826;28;20501;-49
2021/12/23 12:38:42;;;;;;;22.15;14.93;;;-0.40;99.90;;;;;;5040069;28;20375;-51
2021/12/23 12:41:31;;;;;;;24.10;15.52;;;-0.40;99.90;;;;;;5009786;28;20045;-51
2021/12/23 12:44:03;;;;;;;21.02;14.90;;;-0.30;99.90;;;;;;5038689;28;20173;-56
2021/12/23 12:49:46;;;;;;;23.83;15.55;;;-0.30;99.90;;;;;;4996911;28;20029;-56
2021/12/23 12:52:17;;;;;;;22.60;15.57;;;-0.30;99.90;;;;;;4996351;28;20117;-51
2021/12/23 12:54:58;;;;;;;22.88;15.02;;;-0.30;99.90;;;;;;5018908;28;20040;-54
2021/12/23 12:57:32;;;;;;;24.00;15.48;;;-0.30;99.90;;;;;;5034442;28;20025;-50
2021/12/23 13:00:14;;;;;;;25.15;16.35;;;-0.30;99.90;;;;;;5037469;28;20025;-54
2021/12/23 13:02:40;;;;;;;23.33;15.55;;;-0.20;99.90;;;;;;5035699;28;20033;-52
2021/12/23 13:05:11;;;;;;;21.40;14.40;;;-0.20;99.90;;;;;;5037031;28;20029;-55
2021/12/23 13:07:41;;;;;;;24.42;16.30;;;-0.20;99.90;;;;;;5037760;28;20033;-53
2021/12/23 13:10:20;;;;;;;20.67;13.80;;;-0.20;99.90;;;;;;5036915;28;20390;-55
2021/12/23 13:12:51;;;;;;;22.20;16.20;;;-0.20;99.90;;;;;;5040848;28;20518;-51
2021/12/23 13:15:46;;;;;;;22.15;15.65;;;-0.20;99.90;;;;;;5040727;28;20049;-55
2021/12/23 13:18:20;;;;;;;24.88;15.30;;;-0.20;99.90;;;;;;5026438;28;20052;-53
2021/12/23 13:20:47;;;;;;;24.35;14.95;;;-0.20;99.90;;;;;;5039269;28;20071;-55
2021/12/23 13:23:31;;;;;;;23.88;16.13;;;-0.20;99.90;;;;;;5038637;28;20033;-56
2021/12/23 13:25:58;;;;;;;25.67;16.20;;;-0.10;99.90;;;;;;5038021;28;20017;-55
2021/12/23 13:28:27;;;;;;;24.52;16.77;;;-0.20;99.90;;;;;;5035447;28;20099;-54
2021/12/23 13:30:54;;;;;;;23.60;15.40;;;-0.20;99.90;;;;;;5038106;28;20048;-54
2021/12/23 13:33:20;;;;;;;27.58;16.42;;;-0.30;99.90;;;;;;5035345;28;20506;-52
2021/12/23 13:35:46;;;;;;;24.58;17.10;;;-0.30;99.90;;;;;;5038192;28;20068;-54
2021/12/23 13:38:33;;;;;;;28.58;18.27;;;-0.30;99.90;;;;;;5037989;28;20037;-53
2021/12/23 13:41:23;;;;;;;24.35;17.42;;;-0.30;99.90;;;;;;5038781;28;20518;-53
2021/12/23 13:43:49;;;;;;;31.73;22.48;;;-0.40;99.90;;;;;;5036933;28;20033;-51